sensor_id;sensor_type;location;lat;lon;timestamp;temperature;humidity
60848;DHT22;46681;47.696;9.140;2023-12-20T00:01:50;10.90;50.70
60848;DHT22;46681;47.696;9.140;2023-12-20T00:04:15;10.90;51.00
60848;DHT22;46681;47.696;9.140;2023-12-20T00:06:41;10.90;50.80
60848;DHT22;46681;47.696;9.140;2023-12-20T00:09:06;10.90;50.70
60848;DHT22;46681;47.696;9.140;2023-12-20T00:11:32;10.90;50.80
60848;DHT22;46681;47.696;9.140;2023-12-20T00:14:00;10.80;50.30
60848;DHT22;46681;47.696;9.140;2023-12-20T00:16:26;10.80;51.10
60848;DHT22;46681;47.696;9.140;2023-12-20T00:18:52;10.70;50.60
60848;DHT22;46681;47.696;9.140;2023-12-20T00:21:18;10.80;50.90
60848;DHT22;46681;47.696;9.140;2023-12-20T00:23:43;10.70;50.90
60848;DHT22;46681;47.696;9.140;2023-12-20T00:26:09;10.80;50.90
60848;DHT22;46681;47.696;9.140;2023-12-20T00:28:38;10.80;50.70
60848;DHT22;46681;47.696;9.140;2023-12-20T00:31:03;10.80;50.80
60848;DHT22;46681;47.696;9.140;2023-12-20T00:33:29;10.80;50.70
60848;DHT22;46681;47.696;9.140;2023-12-20T00:35:57;10.80;50.90
60848;DHT22;46681;47.696;9.140;2023-12-20T00:38:22;10.80;50.80
60848;DHT22;46681;47.696;9.140;2023-12-20T00:40:48;10.80;50.90
60848;DHT22;46681;47.696;9.140;2023-12-20T00:43:13;10.80;50.80
60848;DHT22;46681;47.696;9.140;2023-12-20T00:45:39;10.90;50.90
60848;DHT22;46681;47.696;9.140;2023-12-20T00:48:05;10.80;50.90
60848;DHT22;46681;47.696;9.140;2023-12-20T00:50:30;10.80;50.90
60848;DHT22;46681;47.696;9.140;2023-12-20T00:52:58;10.90;51.10
60848;DHT22;46681;47.696;9.140;2023-12-20T00:55:24;10.90;51.00
60848;DHT22;46681;47.696;9.140;2023-12-20T00:57:49;10.90;51.00
60848;DHT22;46681;47.696;9.140;2023-12-20T01:00:15;10.90;51.30
60848;DHT22;46681;47.696;9.140;2023-12-20T01:02:40;10.90;50.70
60848;DHT22;46681;47.696;9.140;2023-12-20T01:05:06;11.00;50.60
60848;DHT22;46681;47.696;9.140;2023-12-20T01:07:32;11.00;50.80
60848;DHT22;46681;47.696;9.140;2023-12-20T01:09:57;11.00;50.70
60848;DHT22;46681;47.696;9.140;2023-12-20T01:12:23;11.00;50.60
60848;DHT22;46681;47.696;9.140;2023-12-20T01:14:48;11.00;50.70
60848;DHT22;46681;47.696;9.140;2023-12-20T01:17:13;10.90;50.70
60848;DHT22;46681;47.696;9.140;2023-12-20T01:19:39;10.90;51.00
60848;DHT22;46681;47.696;9.140;2023-12-20T01:22:05;10.90;50.80
60848;DHT22;46681;47.696;9.140;2023-12-20T01:24:31;10.90;50.90
60848;DHT22;46681;47.696;9.140;2023-12-20T01:27:00;10.90;50.60
60848;DHT22;46681;47.696;9.140;2023-12-20T01:29:25;10.90;50.90
60848;DHT22;46681;47.696;9.140;2023-12-20T01:31:51;10.90;50.80
60848;DHT22;46681;47.696;9.140;2023-12-20T01:34:22;10.90;50.70
60848;DHT22;46681;47.696;9.140;2023-12-20T01:36:48;10.90;50.80
60848;DHT22;46681;47.696;9.140;2023-12-20T01:39:13;11.00;51.30
60848;DHT22;46681;47.696;9.140;2023-12-20T01:41:39;10.90;50.80
60848;DHT22;46681;47.696;9.140;2023-12-20T01:44:04;10.90;50.70
60848;DHT22;46681;47.696;9.140;2023-12-20T01:46:30;10.90;50.70
60848;DHT22;46681;47.696;9.140;2023-12-20T01:48:56;11.00;50.80
60848;DHT22;46681;47.696;9.140;2023-12-20T01:51:24;11.00;50.80
60848;DHT22;46681;47.696;9.140;2023-12-20T01:53:50;11.00;50.50
60848;DHT22;46681;47.696;9.140;2023-12-20T01:56:16;11.00;50.80
60848;DHT22;46681;47.696;9.140;2023-12-20T01:58:46;11.00;50.90
60848;DHT22;46681;47.696;9.140;2023-12-20T02:01:15;11.00;50.50
60848;DHT22;46681;47.696;9.140;2023-12-20T02:03:44;11.00;50.80
60848;DHT22;46681;47.696;9.140;2023-12-20T02:06:11;11.10;50.70
60848;DHT22;46681;47.696;9.140;2023-12-20T02:08:37;11.10;50.50
60848;DHT22;46681;47.696;9.140;2023-12-20T02:11:06;11.10;50.60
60848;DHT22;46681;47.696;9.140;2023-12-20T02:13:31;11.00;51.00
60848;DHT22;46681;47.696;9.140;2023-12-20T02:15:57;11.10;50.70
60848;DHT22;46681;47.696;9.140;2023-12-20T02:18:23;11.10;50.70
60848;DHT22;46681;47.696;9.140;2023-12-20T02:20:49;11.10;50.60
60848;DHT22;46681;47.696;9.140;2023-12-20T02:23:15;11.20;50.60
60848;DHT22;46681;47.696;9.140;2023-12-20T02:25:40;11.20;50.50
60848;DHT22;46681;47.696;9.140;2023-12-20T02:28:06;11.20;50.70
60848;DHT22;46681;47.696;9.140;2023-12-20T02:30:31;11.20;50.60
60848;DHT22;46681;47.696;9.140;2023-12-20T02:32:57;11.30;50.60
60848;DHT22;46681;47.696;9.140;2023-12-20T02:35:27;11.20;50.40
60848;DHT22;46681;47.696;9.140;2023-12-20T02:37:53;11.20;50.50
60848;DHT22;46681;47.696;9.140;2023-12-20T02:40:18;11.20;50.50
60848;DHT22;46681;47.696;9.140;2023-12-20T02:42:44;11.20;50.60
60848;DHT22;46681;47.696;9.140;2023-12-20T02:45:09;11.20;50.60
60848;DHT22;46681;47.696;9.140;2023-12-20T02:47:38;11.20;50.50
60848;DHT22;46681;47.696;9.140;2023-12-20T02:50:06;11.20;50.60
60848;DHT22;46681;47.696;9.140;2023-12-20T02:52:32;11.20;50.60
60848;DHT22;46681;47.696;9.140;2023-12-20T02:54:57;11.20;50.80
60848;DHT22;46681;47.696;9.140;2023-12-20T02:57:26;11.20;50.60
60848;DHT22;46681;47.696;9.140;2023-12-20T02:59:51;11.20;50.50
60848;DHT22;46681;47.696;9.140;2023-12-20T03:02:20;11.30;50.50
60848;DHT22;46681;47.696;9.140;2023-12-20T03:04:46;11.30;50.90
60848;DHT22;46681;47.696;9.140;2023-12-20T03:07:18;11.30;50.50
60848;DHT22;46681;47.696;9.140;2023-12-20T03:09:43;11.30;50.60
60848;DHT22;46681;47.696;9.140;2023-12-20T03:12:09;11.30;50.60
60848;DHT22;46681;47.696;9.140;2023-12-20T03:14:34;11.30;50.60
60848;DHT22;46681;47.696;9.140;2023-12-20T03:17:00;11.20;50.90
60848;DHT22;46681;47.696;9.140;2023-12-20T03:19:25;11.20;50.80
60848;DHT22;46681;47.696;9.140;2023-12-20T03:21:51;11.20;50.80
60848;DHT22;46681;47.696;9.140;2023-12-20T03:24:20;11.10;50.80
60848;DHT22;46681;47.696;9.140;2023-12-20T03:26:50;11.20;50.90
60848;DHT22;46681;47.696;9.140;2023-12-20T03:29:19;11.10;50.90
60848;DHT22;46681;47.696;9.140;2023-12-20T03:31:48;11.10;50.70
60848;DHT22;46681;47.696;9.140;2023-12-20T03:34:17;11.10;51.10
60848;DHT22;46681;47.696;9.140;2023-12-20T03:36:42;11.10;51.00
60848;DHT22;46681;47.696;9.140;2023-12-20T03:39:08;11.10;51.20
60848;DHT22;46681;47.696;9.140;2023-12-20T03:41:33;11.00;51.00
60848;DHT22;46681;47.696;9.140;2023-12-20T03:43:58;11.00;51.20
60848;DHT22;46681;47.696;9.140;2023-12-20T03:46:24;11.00;51.30
60848;DHT22;46681;47.696;9.140;2023-12-20T03:48:49;11.00;51.40
60848;DHT22;46681;47.696;9.140;2023-12-20T03:51:15;11.10;51.40
60848;DHT22;46681;47.696;9.140;2023-12-20T03:53:40;11.00;51.60
60848;DHT22;46681;47.696;9.140;2023-12-20T03:56:10;11.10;51.80
60848;DHT22;46681;47.696;9.140;2023-12-20T03:58:35;11.10;52.10
60848;DHT22;46681;47.696;9.140;2023-12-20T04:01:00;11.10;51.80
60848;DHT22;46681;47.696;9.140;2023-12-20T04:03:26;11.10;51.70
60848;DHT22;46681;47.696;9.140;2023-12-20T04:05:51;11.00;51.80
60848;DHT22;46681;47.696;9.140;2023-12-20T04:08:17;11.00;52.10
60848;DHT22;46681;47.696;9.140;2023-12-20T04:10:43;11.00;51.90
60848;DHT22;46681;47.696;9.140;2023-12-20T04:13:08;11.00;52.20
60848;DHT22;46681;47.696;9.140;2023-12-20T04:15:39;11.00;52.30
60848;DHT22;46681;47.696;9.140;2023-12-20T04:18:05;11.10;52.30
60848;DHT22;46681;47.696;9.140;2023-12-20T04:20:30;11.00;52.30
60848;DHT22;46681;47.696;9.140;2023-12-20T04:22:56;11.00;52.50
60848;DHT22;46681;47.696;9.140;2023-12-20T04:25:21;11.10;52.50
60848;DHT22;46681;47.696;9.140;2023-12-20T04:27:47;11.10;52.40
60848;DHT22;46681;47.696;9.140;2023-12-20T04:30:13;11.10;52.50
60848;DHT22;46681;47.696;9.140;2023-12-20T04:32:39;11.20;52.40
60848;DHT22;46681;47.696;9.140;2023-12-20T04:35:05;11.20;52.50
60848;DHT22;46681;47.696;9.140;2023-12-20T04:37:30;11.20;52.50
60848;DHT22;46681;47.696;9.140;2023-12-20T04:39:56;11.20;52.40
60848;DHT22;46681;47.696;9.140;2023-12-20T04:42:24;11.30;52.90
60848;DHT22;46681;47.696;9.140;2023-12-20T04:44:49;11.30;52.40
60848;DHT22;46681;47.696;9.140;2023-12-20T04:47:15;11.30;52.40
60848;DHT22;46681;47.696;9.140;2023-12-20T04:49:40;11.30;52.40
60848;DHT22;46681;47.696;9.140;2023-12-20T04:52:06;11.40;52.30
60848;DHT22;46681;47.696;9.140;2023-12-20T04:54:31;11.40;52.30
60848;DHT22;46681;47.696;9.140;2023-12-20T04:56:57;11.40;52.30
60848;DHT22;46681;47.696;9.140;2023-12-20T04:59:22;11.40;52.30
60848;DHT22;46681;47.696;9.140;2023-12-20T05:01:49;11.40;52.30
60848;DHT22;46681;47.696;9.140;2023-12-20T05:04:16;11.40;52.20
60848;DHT22;46681;47.696;9.140;2023-12-20T05:06:41;11.40;52.30
60848;DHT22;46681;47.696;9.140;2023-12-20T05:09:08;11.40;52.40
60848;DHT22;46681;47.696;9.140;2023-12-20T05:11:34;11.40;52.40
60848;DHT22;46681;47.696;9.140;2023-12-20T05:13:59;11.50;52.30
60848;DHT22;46681;47.696;9.140;2023-12-20T05:16:28;11.50;52.30
60848;DHT22;46681;47.696;9.140;2023-12-20T05:18:53;11.50;52.30
60848;DHT22;46681;47.696;9.140;2023-12-20T05:21:19;11.60;53.20
60848;DHT22;46681;47.696;9.140;2023-12-20T05:23:49;11.70;53.60
60848;DHT22;46681;47.696;9.140;2023-12-20T05:26:14;11.80;53.40
60848;DHT22;46681;47.696;9.140;2023-12-20T05:28:40;11.80;53.40
60848;DHT22;46681;47.696;9.140;2023-12-20T05:31:05;11.80;53.30
60848;DHT22;46681;47.696;9.140;2023-12-20T05:33:31;11.80;53.30
60848;DHT22;46681;47.696;9.140;2023-12-20T05:36:00;11.70;53.30
60848;DHT22;46681;47.696;9.140;2023-12-20T05:38:31;11.70;53.40
60848;DHT22;46681;47.696;9.140;2023-12-20T05:40:57;11.70;53.60
60848;DHT22;46681;47.696;9.140;2023-12-20T05:43:22;11.70;53.70
60848;DHT22;46681;47.696;9.140;2023-12-20T05:45:53;11.60;53.70
60848;DHT22;46681;47.696;9.140;2023-12-20T05:48:20;11.60;53.60
60848;DHT22;46681;47.696;9.140;2023-12-20T05:50:48;11.60;53.70
60848;DHT22;46681;47.696;9.140;2023-12-20T05:53:14;11.50;53.80
60848;DHT22;46681;47.696;9.140;2023-12-20T05:55:44;11.50;53.80
60848;DHT22;46681;47.696;9.140;2023-12-20T05:58:12;11.40;53.90
60848;DHT22;46681;47.696;9.140;2023-12-20T06:00:44;11.40;53.90
60848;DHT22;46681;47.696;9.140;2023-12-20T06:03:16;11.40;54.10
60848;DHT22;46681;47.696;9.140;2023-12-20T06:05:49;11.30;54.20
60848;DHT22;46681;47.696;9.140;2023-12-20T06:08:14;11.30;54.10
60848;DHT22;46681;47.696;9.140;2023-12-20T06:10:44;11.30;54.90
60848;DHT22;46681;47.696;9.140;2023-12-20T06:13:10;11.30;54.70
60848;DHT22;46681;47.696;9.140;2023-12-20T06:15:38;11.30;54.60
60848;DHT22;46681;47.696;9.140;2023-12-20T06:18:12;11.20;54.60
60848;DHT22;46681;47.696;9.140;2023-12-20T06:20:45;11.20;54.60
60848;DHT22;46681;47.696;9.140;2023-12-20T06:23:11;11.20;55.20
60848;DHT22;46681;47.696;9.140;2023-12-20T06:25:43;11.20;54.90
60848;DHT22;46681;47.696;9.140;2023-12-20T06:28:10;11.10;55.80
60848;DHT22;46681;47.696;9.140;2023-12-20T06:30:43;11.30;56.40
60848;DHT22;46681;47.696;9.140;2023-12-20T06:33:15;11.30;56.50
60848;DHT22;46681;47.696;9.140;2023-12-20T06:35:53;11.30;55.90
60848;DHT22;46681;47.696;9.140;2023-12-20T06:38:20;11.20;55.80
60848;DHT22;46681;47.696;9.140;2023-12-20T06:41:00;11.10;55.70
60848;DHT22;46681;47.696;9.140;2023-12-20T06:43:49;11.10;55.70
60848;DHT22;46681;47.696;9.140;2023-12-20T06:46:26;11.00;55.80
60848;DHT22;46681;47.696;9.140;2023-12-20T06:49:17;11.00;55.90
60848;DHT22;46681;47.696;9.140;2023-12-20T06:51:51;11.00;55.90
60848;DHT22;46681;47.696;9.140;2023-12-20T06:54:18;10.90;56.00
60848;DHT22;46681;47.696;9.140;2023-12-20T06:56:45;10.90;56.00
60848;DHT22;46681;47.696;9.140;2023-12-20T06:59:19;10.90;56.10
60848;DHT22;46681;47.696;9.140;2023-12-20T07:01:57;10.90;56.10
60848;DHT22;46681;47.696;9.140;2023-12-20T07:04:42;11.00;56.10
60848;DHT22;46681;47.696;9.140;2023-12-20T07:07:12;11.00;56.20
60848;DHT22;46681;47.696;9.140;2023-12-20T07:09:57;11.00;56.20
60848;DHT22;46681;47.696;9.140;2023-12-20T07:12:25;11.00;56.30
60848;DHT22;46681;47.696;9.140;2023-12-20T07:14:51;11.00;56.30
60848;DHT22;46681;47.696;9.140;2023-12-20T07:17:28;11.00;56.30
60848;DHT22;46681;47.696;9.140;2023-12-20T07:19:59;11.00;56.20
60848;DHT22;46681;47.696;9.140;2023-12-20T07:22:36;11.00;56.30
60848;DHT22;46681;47.696;9.140;2023-12-20T07:25:06;11.00;56.20
60848;DHT22;46681;47.696;9.140;2023-12-20T07:27:46;11.00;56.40
60848;DHT22;46681;47.696;9.140;2023-12-20T07:30:18;11.00;56.40
60848;DHT22;46681;47.696;9.140;2023-12-20T07:32:52;11.00;56.40
60848;DHT22;46681;47.696;9.140;2023-12-20T07:35:23;11.00;56.40
60848;DHT22;46681;47.696;9.140;2023-12-20T07:38:01;11.00;56.40
60848;DHT22;46681;47.696;9.140;2023-12-20T07:40:35;11.10;56.50
60848;DHT22;46681;47.696;9.140;2023-12-20T07:43:00;11.10;56.40
60848;DHT22;46681;47.696;9.140;2023-12-20T07:45:31;11.10;56.50
60848;DHT22;46681;47.696;9.140;2023-12-20T07:48:06;11.10;56.40
60848;DHT22;46681;47.696;9.140;2023-12-20T07:50:34;11.00;56.40
60848;DHT22;46681;47.696;9.140;2023-12-20T07:53:06;11.00;56.50
60848;DHT22;46681;47.696;9.140;2023-12-20T07:55:35;11.10;56.60
60848;DHT22;46681;47.696;9.140;2023-12-20T07:58:09;11.00;56.50
60848;DHT22;46681;47.696;9.140;2023-12-20T08:00:46;11.10;56.60
60848;DHT22;46681;47.696;9.140;2023-12-20T08:03:22;11.10;56.50
60848;DHT22;46681;47.696;9.140;2023-12-20T08:05:57;11.10;56.60
60848;DHT22;46681;47.696;9.140;2023-12-20T08:08:31;11.10;56.70
60848;DHT22;46681;47.696;9.140;2023-12-20T08:11:00;11.10;56.70
60848;DHT22;46681;47.696;9.140;2023-12-20T08:13:33;11.10;56.70
60848;DHT22;46681;47.696;9.140;2023-12-20T08:16:09;11.20;56.70
60848;DHT22;46681;47.696;9.140;2023-12-20T08:18:35;11.10;56.60
60848;DHT22;46681;47.696;9.140;2023-12-20T08:21:02;11.20;56.70
60848;DHT22;46681;47.696;9.140;2023-12-20T08:23:43;11.20;56.80
60848;DHT22;46681;47.696;9.140;2023-12-20T08:26:13;11.20;56.90
60848;DHT22;46681;47.696;9.140;2023-12-20T08:28:39;11.20;56.80
60848;DHT22;46681;47.696;9.140;2023-12-20T08:31:15;11.20;56.80
60848;DHT22;46681;47.696;9.140;2023-12-20T08:33:41;11.20;56.90
60848;DHT22;46681;47.696;9.140;2023-12-20T08:36:09;11.20;56.90
60848;DHT22;46681;47.696;9.140;2023-12-20T08:38:40;11.20;56.80
60848;DHT22;46681;47.696;9.140;2023-12-20T08:41:11;11.20;56.90
60848;DHT22;46681;47.696;9.140;2023-12-20T08:43:39;11.20;56.90
60848;DHT22;46681;47.696;9.140;2023-12-20T08:46:05;11.20;57.00
60848;DHT22;46681;47.696;9.140;2023-12-20T08:48:45;11.20;57.00
60848;DHT22;46681;47.696;9.140;2023-12-20T08:51:29;11.20;57.00
60848;DHT22;46681;47.696;9.140;2023-12-20T08:54:03;11.20;57.00
60848;DHT22;46681;47.696;9.140;2023-12-20T08:56:47;11.30;57.10
60848;DHT22;46681;47.696;9.140;2023-12-20T08:59:21;11.30;57.00
60848;DHT22;46681;47.696;9.140;2023-12-20T09:01:52;11.30;57.10
60848;DHT22;46681;47.696;9.140;2023-12-20T09:04:19;11.40;57.00
60848;DHT22;46681;47.696;9.140;2023-12-20T09:06:45;11.30;57.00
60848;DHT22;46681;47.696;9.140;2023-12-20T09:09:17;11.30;57.10
60848;DHT22;46681;47.696;9.140;2023-12-20T09:11:50;11.30;57.00
60848;DHT22;46681;47.696;9.140;2023-12-20T09:14:19;11.30;57.10
60848;DHT22;46681;47.696;9.140;2023-12-20T09:16:46;11.40;57.20
60848;DHT22;46681;47.696;9.140;2023-12-20T09:19:21;11.40;57.20
60848;DHT22;46681;47.696;9.140;2023-12-20T09:21:51;11.40;57.20
60848;DHT22;46681;47.696;9.140;2023-12-20T09:24:22;11.40;57.30
60848;DHT22;46681;47.696;9.140;2023-12-20T09:27:02;11.40;57.20
60848;DHT22;46681;47.696;9.140;2023-12-20T09:29:40;11.40;57.30
60848;DHT22;46681;47.696;9.140;2023-12-20T09:32:13;11.40;57.30
60848;DHT22;46681;47.696;9.140;2023-12-20T09:34:55;11.40;57.40
60848;DHT22;46681;47.696;9.140;2023-12-20T09:37:28;11.40;57.30
60848;DHT22;46681;47.696;9.140;2023-12-20T09:39:55;11.40;57.30
60848;DHT22;46681;47.696;9.140;2023-12-20T09:42:51;11.40;57.50
60848;DHT22;46681;47.696;9.140;2023-12-20T09:45:26;11.40;57.40
60848;DHT22;46681;47.696;9.140;2023-12-20T09:48:20;11.40;57.50
60848;DHT22;46681;47.696;9.140;2023-12-20T09:50:51;11.40;57.50
60848;DHT22;46681;47.696;9.140;2023-12-20T09:53:18;11.40;57.50
60848;DHT22;46681;47.696;9.140;2023-12-20T09:55:56;11.40;57.60
60848;DHT22;46681;47.696;9.140;2023-12-20T09:58:31;11.40;57.90
60848;DHT22;46681;47.696;9.140;2023-12-20T10:00:58;11.40;57.60
60848;DHT22;46681;47.696;9.140;2023-12-20T10:03:25;11.40;57.60
60848;DHT22;46681;47.696;9.140;2023-12-20T10:05:59;11.40;57.70
60848;DHT22;46681;47.696;9.140;2023-12-20T10:08:30;11.50;57.60
60848;DHT22;46681;47.696;9.140;2023-12-20T10:10:58;11.50;57.50
60848;DHT22;46681;47.696;9.140;2023-12-20T10:13:23;11.50;57.50
60848;DHT22;46681;47.696;9.140;2023-12-20T10:15:49;11.60;57.50
60848;DHT22;46681;47.696;9.140;2023-12-20T10:18:15;11.50;57.50
60848;DHT22;46681;47.696;9.140;2023-12-20T10:20:52;11.60;57.50
60848;DHT22;46681;47.696;9.140;2023-12-20T10:23:21;11.70;57.60
60848;DHT22;46681;47.696;9.140;2023-12-20T10:26:02;11.70;57.40
60848;DHT22;46681;47.696;9.140;2023-12-20T10:28:34;11.70;57.30
60848;DHT22;46681;47.696;9.140;2023-12-20T10:31:34;11.70;57.30
60848;DHT22;46681;47.696;9.140;2023-12-20T10:34:12;11.70;57.30
60848;DHT22;46681;47.696;9.140;2023-12-20T10:36:38;11.80;57.40
60848;DHT22;46681;47.696;9.140;2023-12-20T10:39:26;11.70;57.30
60848;DHT22;46681;47.696;9.140;2023-12-20T10:41:51;11.70;57.40
60848;DHT22;46681;47.696;9.140;2023-12-20T10:44:17;11.80;57.30
60848;DHT22;46681;47.696;9.140;2023-12-20T10:46:52;11.80;57.30
60848;DHT22;46681;47.696;9.140;2023-12-20T10:49:26;11.80;57.30
60848;DHT22;46681;47.696;9.140;2023-12-20T10:52:10;11.80;57.20
60848;DHT22;46681;47.696;9.140;2023-12-20T10:54:51;11.90;57.20
60848;DHT22;46681;47.696;9.140;2023-12-20T10:57:20;11.90;57.50
60848;DHT22;46681;47.696;9.140;2023-12-20T10:59:54;11.90;57.20
60848;DHT22;46681;47.696;9.140;2023-12-20T11:02:39;12.00;56.90
60848;DHT22;46681;47.696;9.140;2023-12-20T11:14:06;12.50;56.20
60848;DHT22;46681;47.696;9.140;2023-12-20T11:16:38;12.60;55.90
60848;DHT22;46681;47.696;9.140;2023-12-20T11:19:07;12.60;55.90
60848;DHT22;46681;47.696;9.140;2023-12-20T11:21:38;12.70;55.90
60848;DHT22;46681;47.696;9.140;2023-12-20T11:24:21;12.70;55.80
60848;DHT22;46681;47.696;9.140;2023-12-20T11:26:51;12.60;55.90
60848;DHT22;46681;47.696;9.140;2023-12-20T11:29:43;12.60;56.00
60848;DHT22;46681;47.696;9.140;2023-12-20T11:38:12;12.80;55.70
60848;DHT22;46681;47.696;9.140;2023-12-20T11:41:00;13.30;55.50
60848;DHT22;46681;47.696;9.140;2023-12-20T11:43:57;14.00;55.30
60848;DHT22;46681;47.696;9.140;2023-12-20T11:46:28;14.70;53.80
60848;DHT22;46681;47.696;9.140;2023-12-20T11:49:00;15.20;52.60
60848;DHT22;46681;47.696;9.140;2023-12-20T11:51:31;15.60;51.90
60848;DHT22;46681;47.696;9.140;2023-12-20T11:57:00;16.30;50.30
60848;DHT22;46681;47.696;9.140;2023-12-20T11:59:41;16.60;49.80
60848;DHT22;46681;47.696;9.140;2023-12-20T12:02:54;16.90;49.40
60848;DHT22;46681;47.696;9.140;2023-12-20T12:08:32;17.20;48.20
60848;DHT22;46681;47.696;9.140;2023-12-20T12:11:02;17.10;47.90
60848;DHT22;46681;47.696;9.140;2023-12-20T12:13:41;16.70;47.80
60848;DHT22;46681;47.696;9.140;2023-12-20T12:16:30;16.70;49.10
60848;DHT22;46681;47.696;9.140;2023-12-20T12:19:22;16.70;48.50
60848;DHT22;46681;47.696;9.140;2023-12-20T12:22:22;16.50;48.80
60848;DHT22;46681;47.696;9.140;2023-12-20T12:24:48;16.40;48.40
60848;DHT22;46681;47.696;9.140;2023-12-20T12:27:23;16.40;49.20
60848;DHT22;46681;47.696;9.140;2023-12-20T12:30:12;16.30;48.40
60848;DHT22;46681;47.696;9.140;2023-12-20T12:32:40;16.00;48.30
60848;DHT22;46681;47.696;9.140;2023-12-20T12:35:14;15.80;48.40
60848;DHT22;46681;47.696;9.140;2023-12-20T12:38:12;15.60;48.50
60848;DHT22;46681;47.696;9.140;2023-12-20T12:40:54;15.70;48.90
60848;DHT22;46681;47.696;9.140;2023-12-20T12:43:33;15.90;48.60
60848;DHT22;46681;47.696;9.140;2023-12-20T12:46:02;15.70;48.50
60848;DHT22;46681;47.696;9.140;2023-12-20T12:48:34;15.60;48.40
60848;DHT22;46681;47.696;9.140;2023-12-20T12:51:02;15.60;49.00
60848;DHT22;46681;47.696;9.140;2023-12-20T12:53:38;15.30;48.70
60848;DHT22;46681;47.696;9.140;2023-12-20T12:56:17;15.10;49.30
60848;DHT22;46681;47.696;9.140;2023-12-20T12:58:46;14.90;49.60
60848;DHT22;46681;47.696;9.140;2023-12-20T13:01:18;14.80;49.50
60848;DHT22;46681;47.696;9.140;2023-12-20T13:03:45;14.70;49.70
60848;DHT22;46681;47.696;9.140;2023-12-20T13:06:16;14.50;49.80
60848;DHT22;46681;47.696;9.140;2023-12-20T13:08:45;14.40;50.10
60848;DHT22;46681;47.696;9.140;2023-12-20T13:11:33;14.60;49.90
60848;DHT22;46681;47.696;9.140;2023-12-20T13:14:12;15.10;49.00
60848;DHT22;46681;47.696;9.140;2023-12-20T13:16:42;15.80;48.00
60848;DHT22;46681;47.696;9.140;2023-12-20T13:19:15;16.30;47.60
60848;DHT22;46681;47.696;9.140;2023-12-20T13:21:56;16.70;47.60
60848;DHT22;46681;47.696;9.140;2023-12-20T13:24:47;17.10;46.90
60848;DHT22;46681;47.696;9.140;2023-12-20T13:27:24;17.40;46.20
60848;DHT22;46681;47.696;9.140;2023-12-20T13:29:52;17.60;46.10
60848;DHT22;46681;47.696;9.140;2023-12-20T13:32:22;17.70;45.70
60848;DHT22;46681;47.696;9.140;2023-12-20T13:34:48;17.80;45.30
60848;DHT22;46681;47.696;9.140;2023-12-20T13:37:22;17.90;44.90
60848;DHT22;46681;47.696;9.140;2023-12-20T13:39:48;17.80;45.20
60848;DHT22;46681;47.696;9.140;2023-12-20T13:42:16;17.60;45.20
60848;DHT22;46681;47.696;9.140;2023-12-20T13:44:48;17.20;44.50
60848;DHT22;46681;47.696;9.140;2023-12-20T13:47:19;16.80;44.80
60848;DHT22;46681;47.696;9.140;2023-12-20T13:49:59;16.40;45.30
60848;DHT22;46681;47.696;9.140;2023-12-20T13:52:25;16.10;46.30
60848;DHT22;46681;47.696;9.140;2023-12-20T13:54:54;15.80;47.10
60848;DHT22;46681;47.696;9.140;2023-12-20T13:57:29;15.60;47.70
60848;DHT22;46681;47.696;9.140;2023-12-20T14:00:00;15.40;48.00
60848;DHT22;46681;47.696;9.140;2023-12-20T14:02:27;15.20;49.00
60848;DHT22;46681;47.696;9.140;2023-12-20T14:04:53;15.00;48.50
60848;DHT22;46681;47.696;9.140;2023-12-20T14:07:28;14.90;49.10
60848;DHT22;46681;47.696;9.140;2023-12-20T14:09:56;14.70;49.50
60848;DHT22;46681;47.696;9.140;2023-12-20T14:12:23;14.60;50.10
60848;DHT22;46681;47.696;9.140;2023-12-20T14:14:49;14.50;50.20
60848;DHT22;46681;47.696;9.140;2023-12-20T14:17:24;14.30;50.60
60848;DHT22;46681;47.696;9.140;2023-12-20T14:20:01;14.20;50.60
60848;DHT22;46681;47.696;9.140;2023-12-20T14:22:27;14.10;50.70
60848;DHT22;46681;47.696;9.140;2023-12-20T14:24:56;13.90;50.80
60848;DHT22;46681;47.696;9.140;2023-12-20T14:27:24;13.80;50.60
60848;DHT22;46681;47.696;9.140;2023-12-20T14:30:02;13.70;51.10
60848;DHT22;46681;47.696;9.140;2023-12-20T14:32:29;13.60;51.00
60848;DHT22;46681;47.696;9.140;2023-12-20T14:35:02;13.50;51.30
60848;DHT22;46681;47.696;9.140;2023-12-20T14:37:36;13.40;51.30
60848;DHT22;46681;47.696;9.140;2023-12-20T14:40:02;13.30;51.40
60848;DHT22;46681;47.696;9.140;2023-12-20T14:42:37;13.20;51.30
60848;DHT22;46681;47.696;9.140;2023-12-20T14:45:09;13.10;51.40
60848;DHT22;46681;47.696;9.140;2023-12-20T14:47:39;13.10;51.60
60848;DHT22;46681;47.696;9.140;2023-12-20T14:50:12;13.10;51.80
60848;DHT22;46681;47.696;9.140;2023-12-20T14:52:39;13.10;51.40
60848;DHT22;46681;47.696;9.140;2023-12-20T14:55:11;13.10;50.90
60848;DHT22;46681;47.696;9.140;2023-12-20T14:57:56;13.20;50.50
60848;DHT22;46681;47.696;9.140;2023-12-20T15:00:34;13.30;50.20
60848;DHT22;46681;47.696;9.140;2023-12-20T15:03:00;13.20;49.90
60848;DHT22;46681;47.696;9.140;2023-12-20T15:05:27;13.10;50.00
60848;DHT22;46681;47.696;9.140;2023-12-20T15:08:10;13.00;50.30
60848;DHT22;46681;47.696;9.140;2023-12-20T15:10:45;12.90;50.30
60848;DHT22;46681;47.696;9.140;2023-12-20T15:13:16;12.70;50.30
60848;DHT22;46681;47.696;9.140;2023-12-20T15:15:43;12.60;50.20
60848;DHT22;46681;47.696;9.140;2023-12-20T15:18:42;12.50;50.30
60848;DHT22;46681;47.696;9.140;2023-12-20T15:21:21;12.40;50.50
60848;DHT22;46681;47.696;9.140;2023-12-20T15:26:32;12.30;51.00
60848;DHT22;46681;47.696;9.140;2023-12-20T15:29:04;12.20;51.00
60848;DHT22;46681;47.696;9.140;2023-12-20T15:31:31;12.10;51.10
60848;DHT22;46681;47.696;9.140;2023-12-20T15:33:58;12.10;51.10
60848;DHT22;46681;47.696;9.140;2023-12-20T15:36:25;12.00;51.40
60848;DHT22;46681;47.696;9.140;2023-12-20T15:38:50;11.90;51.40
60848;DHT22;46681;47.696;9.140;2023-12-20T15:41:20;11.90;51.70
60848;DHT22;46681;47.696;9.140;2023-12-20T15:43:47;11.80;51.70
60848;DHT22;46681;47.696;9.140;2023-12-20T15:46:14;11.90;54.30
60848;DHT22;46681;47.696;9.140;2023-12-20T15:48:41;11.90;54.90
60848;DHT22;46681;47.696;9.140;2023-12-20T15:51:07;11.90;55.00
60848;DHT22;46681;47.696;9.140;2023-12-20T15:53:34;11.90;54.20
60848;DHT22;46681;47.696;9.140;2023-12-20T15:56:06;11.90;54.20
60848;DHT22;46681;47.696;9.140;2023-12-20T15:58:35;11.90;54.10
60848;DHT22;46681;47.696;9.140;2023-12-20T16:01:02;11.80;54.30
60848;DHT22;46681;47.696;9.140;2023-12-20T16:03:29;11.70;52.70
60848;DHT22;46681;47.696;9.140;2023-12-20T16:05:58;11.60;51.80
60848;DHT22;46681;47.696;9.140;2023-12-20T16:08:26;11.50;51.80
60848;DHT22;46681;47.696;9.140;2023-12-20T16:10:55;11.50;51.80
60848;DHT22;46681;47.696;9.140;2023-12-20T16:13:26;11.50;51.80
60848;DHT22;46681;47.696;9.140;2023-12-20T16:15:52;11.50;51.50